Aylett, Virginia
Current Conditions -  °F | °C
As of 3:15 PM on Friday 21 Nov 2014 (Local Time) from KXSA Reporting Station
Clear Clear  
Wind Chill:   Ceiling: Unl
Heat Index:   Visibility: 10mi
Dew Point: -18°   Wind: 6mph
Humidity: 19%   Direction: 290°WNW
Pressure: 30.47"   Gusts: NA
Location:  37.79°N, 77.11°W
Report Text: KXSA 212015Z AUTO 29005KT 10SM CLR 04/M18 A3047 RMK AO2 T00421178
Loading
Personal Weather Stations






























Interactive Weather Map New forecast layout! Learn more

10-Day Weather Forecast

Advertisements
Track Severe Weather on mobile